createdAt,value
2017-11-03T00:00:04.279Z,0
2017-11-03T00:01:04.266Z,0
2017-11-03T00:02:04.256Z,0
2017-11-03T00:03:04.238Z,0
2017-11-03T00:04:04.570Z,0
2017-11-03T00:05:04.564Z,0
2017-11-03T00:06:04.226Z,0
2017-11-03T00:07:04.540Z,0
2017-11-03T00:08:04.537Z,0
2017-11-03T00:09:04.165Z,0
2017-11-03T00:10:04.154Z,0
2017-11-03T00:11:04.138Z,0
2017-11-03T00:12:04.478Z,0
2017-11-03T00:13:04.114Z,0
2017-11-03T00:14:04.105Z,0
2017-11-03T00:15:04.090Z,0
2017-11-03T00:16:04.415Z,0
2017-11-03T00:17:04.080Z,0
2017-11-03T00:18:04.392Z,0
2017-11-03T00:19:04.037Z,0
2017-11-03T00:20:04.023Z,0
2017-11-03T00:21:04.012Z,0
2017-11-03T00:22:04.005Z,0
2017-11-03T00:23:04.324Z,0
2017-11-03T00:24:04.325Z,0
2017-11-03T00:25:03.968Z,0
2017-11-03T00:26:03.945Z,0
2017-11-03T00:27:03.934Z,0
2017-11-03T00:28:03.946Z,0
2017-11-03T00:29:03.906Z,0
2017-11-03T00:30:03.906Z,0
2017-11-03T00:31:03.884Z,0
2017-11-03T00:32:03.870Z,0
2017-11-03T00:33:03.858Z,0
2017-11-03T00:34:03.847Z,0
2017-11-03T00:35:04.176Z,0
2017-11-03T00:36:04.165Z,0
2017-11-03T00:37:03.808Z,0
2017-11-03T00:38:04.149Z,0
2017-11-03T00:39:03.782Z,0
2017-11-03T00:40:04.111Z,0
2017-11-03T00:41:04.096Z,0
2017-11-03T00:42:03.743Z,0
2017-11-03T00:43:03.730Z,0
2017-11-03T00:44:03.717Z,0
2017-11-03T00:45:04.057Z,0
2017-11-03T00:46:03.690Z,0
2017-11-03T00:47:03.697Z,0
2017-11-03T00:48:03.665Z,0
2017-11-03T00:49:03.665Z,0
2017-11-03T00:50:03.643Z,0
2017-11-03T00:51:03.975Z,0
2017-11-03T00:52:03.957Z,0
2017-11-03T00:53:03.625Z,0
2017-11-03T00:54:03.938Z,0
2017-11-03T00:55:03.599Z,0
2017-11-03T00:56:03.968Z,0
2017-11-03T00:57:03.912Z,0
2017-11-03T00:58:03.540Z,0
2017-11-03T00:59:03.533Z,0
2017-11-03T01:00:03.877Z,0
2017-11-03T01:01:03.503Z,0
2017-11-03T01:02:03.499Z,0
2017-11-03T01:03:03.821Z,0
2017-11-03T01:04:03.467Z,0
2017-11-03T01:05:03.803Z,0
2017-11-03T01:06:03.786Z,0
2017-11-03T01:07:03.429Z,0
2017-11-03T01:08:03.416Z,0
2017-11-03T01:09:03.417Z,0
2017-11-03T01:10:03.733Z,0
2017-11-03T01:11:03.376Z,0
2017-11-03T01:12:03.367Z,0
2017-11-03T01:13:03.352Z,0
2017-11-03T01:14:03.338Z,0
2017-11-03T01:15:03.327Z,0
2017-11-03T01:16:03.313Z,0
2017-11-03T01:17:03.304Z,0
2017-11-03T01:18:03.289Z,0
2017-11-03T01:19:03.637Z,0
2017-11-03T01:20:03.607Z,0
2017-11-03T01:21:03.615Z,0
2017-11-03T01:22:03.581Z,0
2017-11-03T01:23:03.566Z,0
2017-11-03T01:24:03.572Z,0
2017-11-03T01:25:03.549Z,0
2017-11-03T01:26:03.534Z,0
2017-11-03T01:27:03.182Z,0
2017-11-03T01:28:03.501Z,0
2017-11-03T01:29:03.491Z,0
2017-11-03T01:30:03.479Z,0
2017-11-03T01:31:03.122Z,0
2017-11-03T01:32:03.110Z,0
2017-11-03T01:33:03.095Z,0
2017-11-03T01:34:03.423Z,0
2017-11-03T01:35:03.068Z,0
2017-11-03T01:36:03.398Z,0
2017-11-03T01:37:03.404Z,0
2017-11-03T01:38:03.384Z,0
2017-11-03T01:39:03.020Z,0
2017-11-03T01:40:03.004Z,0
2017-11-03T01:41:02.989Z,0
2017-11-03T01:42:02.979Z,0
2017-11-03T01:43:02.963Z,0
2017-11-03T01:44:02.970Z,0
2017-11-03T01:45:03.298Z,0
2017-11-03T01:46:02.924Z,0
2017-11-03T01:47:03.262Z,0
2017-11-03T01:48:02.900Z,0
2017-11-03T01:49:03.231Z,0
2017-11-03T01:50:03.218Z,0
2017-11-03T01:51:02.863Z,0
2017-11-03T01:52:03.188Z,0
2017-11-03T01:53:03.180Z,0
2017-11-03T01:54:03.162Z,0
2017-11-03T01:55:03.172Z,0
2017-11-03T01:56:03.140Z,0
2017-11-03T01:57:03.120Z,0
2017-11-03T01:58:02.773Z,0
2017-11-03T01:59:02.756Z,0
2017-11-03T02:00:03.108Z,0
2017-11-03T02:01:02.731Z,0
2017-11-03T02:02:02.717Z,0
2017-11-03T02:03:02.708Z,0
2017-11-03T02:04:03.039Z,0
2017-11-03T02:05:02.685Z,0
2017-11-03T02:06:03.008Z,0
2017-11-03T02:07:02.658Z,0
2017-11-03T02:08:02.639Z,0
2017-11-03T02:09:02.629Z,0
2017-11-03T02:10:02.963Z,0
2017-11-03T02:11:02.970Z,0
2017-11-03T02:12:02.931Z,0
2017-11-03T02:13:02.580Z,0
2017-11-03T02:14:02.568Z,0
2017-11-03T02:15:02.890Z,0
2017-11-03T02:16:02.548Z,0
2017-11-03T02:17:02.546Z,0
2017-11-03T02:18:02.860Z,0
2017-11-03T02:19:02.847Z,0
2017-11-03T02:20:02.513Z,0
2017-11-03T02:21:02.497Z,0
2017-11-03T02:22:02.483Z,0
2017-11-03T02:23:02.789Z,0
2017-11-03T02:24:02.778Z,0
2017-11-03T02:25:02.426Z,0
2017-11-03T02:26:02.418Z,0
2017-11-03T02:27:02.412Z,0
2017-11-03T02:28:02.393Z,0
2017-11-03T02:29:02.721Z,0
2017-11-03T02:30:02.367Z,0
2017-11-03T02:31:02.375Z,0
2017-11-03T02:32:02.695Z,0
2017-11-03T02:33:02.703Z,0
2017-11-03T02:34:02.651Z,0
2017-11-03T02:35:02.304Z,0
2017-11-03T02:36:02.654Z,0
2017-11-03T02:37:02.278Z,0
2017-11-03T02:38:02.269Z,0
2017-11-03T02:39:02.603Z,0
2017-11-03T02:40:02.240Z,0
2017-11-03T02:41:02.225Z,0
2017-11-03T02:42:02.563Z,0
2017-11-03T02:43:02.198Z,0
2017-11-03T02:44:02.185Z,0
2017-11-03T02:45:02.517Z,0
2017-11-03T02:46:04.162Z,0
2017-11-03T02:47:02.511Z,0
2017-11-03T02:48:02.136Z,0
2017-11-03T02:49:02.473Z,0
2017-11-03T02:50:02.455Z,0
2017-11-03T02:51:02.480Z,0
2017-11-03T02:52:02.094Z,0
2017-11-03T02:53:02.078Z,0
2017-11-03T02:54:02.064Z,0
2017-11-03T02:55:02.050Z,0
2017-11-03T02:56:02.378Z,0
2017-11-03T02:57:02.024Z,0
2017-11-03T02:58:02.357Z,0
2017-11-03T02:59:02.001Z,0
2017-11-03T03:00:02.331Z,0
2017-11-03T03:01:02.000Z,0
2017-11-03T03:02:02.312Z,0
2017-11-03T03:03:01.952Z,0
2017-11-03T03:04:02.280Z,0
2017-11-03T03:05:01.929Z,0
2017-11-03T03:06:02.254Z,0
2017-11-03T03:07:02.257Z,0
2017-11-03T03:08:01.890Z,0
2017-11-03T03:09:01.876Z,0
2017-11-03T03:10:01.866Z,0
2017-11-03T03:11:01.853Z,0
2017-11-03T03:12:01.873Z,0
2017-11-03T03:13:01.824Z,0
2017-11-03T03:14:02.162Z,0
2017-11-03T03:15:02.027Z,0
2017-11-03T03:16:01.795Z,0
2017-11-03T03:17:01.792Z,0
2017-11-03T03:18:02.112Z,0
2017-11-03T03:19:01.751Z,0
2017-11-03T03:20:01.739Z,0
2017-11-03T03:21:01.725Z,0
2017-11-03T03:22:02.066Z,0
2017-11-03T03:23:02.042Z,0
2017-11-03T03:24:01.688Z,0
2017-11-03T03:25:01.677Z,0
2017-11-03T03:26:01.666Z,0
2017-11-03T03:27:01.654Z,0
2017-11-03T03:28:01.661Z,0
2017-11-03T03:29:01.628Z,0
2017-11-03T03:30:01.632Z,0
2017-11-03T03:31:01.607Z,0
2017-11-03T03:32:01.588Z,0
2017-11-03T03:33:01.589Z,0
2017-11-03T03:34:01.911Z,0
2017-11-03T03:35:01.562Z,0
2017-11-03T03:36:01.539Z,0
2017-11-03T03:37:01.531Z,0
2017-11-03T03:38:01.517Z,0
2017-11-03T03:39:01.863Z,0
2017-11-03T03:40:01.839Z,0
2017-11-03T03:41:01.480Z,0
2017-11-03T03:42:01.470Z,0
2017-11-03T03:43:01.802Z,0
2017-11-03T03:44:01.447Z,0
2017-11-03T03:45:01.428Z,0
2017-11-03T03:46:01.760Z,0
2017-11-03T03:47:01.408Z,0
2017-11-03T03:48:01.733Z,0
2017-11-03T03:49:01.381Z,0
2017-11-03T03:50:01.368Z,0
2017-11-03T03:51:01.355Z,0
2017-11-03T03:52:01.494Z,0
2017-11-03T03:53:01.350Z,0
2017-11-03T03:54:01.318Z,0
2017-11-03T03:55:01.314Z,0
2017-11-03T03:56:01.312Z,0
2017-11-03T03:57:01.281Z,0
2017-11-03T03:58:01.270Z,0
2017-11-03T03:59:01.257Z,0
2017-11-03T04:00:01.245Z,0
2017-11-03T04:01:01.572Z,0
2017-11-03T04:02:01.218Z,0
2017-11-03T04:03:01.546Z,0
2017-11-03T04:04:01.195Z,0
2017-11-03T04:05:01.519Z,0
2017-11-03T04:06:01.178Z,0
2017-11-03T04:07:01.155Z,0
2017-11-03T04:08:01.144Z,0
2017-11-03T04:09:01.148Z,0
2017-11-03T04:10:01.122Z,0
2017-11-03T04:11:01.467Z,0
2017-11-03T04:12:01.432Z,0
2017-11-03T04:13:01.085Z,0
2017-11-03T04:14:01.417Z,0
2017-11-03T04:15:01.056Z,0
2017-11-03T04:16:01.418Z,0
2017-11-03T04:17:01.040Z,0
2017-11-03T04:18:01.388Z,0
2017-11-03T04:19:01.008Z,0
2017-11-03T04:20:00.996Z,0
2017-11-03T04:21:00.982Z,0
2017-11-03T04:22:00.968Z,0
2017-11-03T04:23:00.970Z,0
2017-11-03T04:24:01.281Z,0
2017-11-03T04:25:00.937Z,0
2017-11-03T04:26:00.918Z,0
2017-11-03T04:27:00.906Z,0
2017-11-03T04:28:00.892Z,0
2017-11-03T04:29:01.224Z,0
2017-11-03T04:30:01.214Z,0
2017-11-03T04:31:00.859Z,0
2017-11-03T04:32:01.209Z,0
2017-11-03T04:33:00.829Z,0
2017-11-03T04:34:01.165Z,0
2017-11-03T04:35:00.806Z,0
2017-11-03T04:36:01.141Z,0
2017-11-03T04:37:00.782Z,0
2017-11-03T04:38:01.124Z,0
2017-11-03T04:39:00.760Z,0
2017-11-03T04:40:01.090Z,0
2017-11-03T04:41:00.737Z,0
2017-11-03T04:42:00.722Z,0
2017-11-03T04:43:00.711Z,0
2017-11-03T04:44:00.720Z,0
2017-11-03T04:45:01.023Z,0
2017-11-03T04:46:00.670Z,0
2017-11-03T04:47:01.016Z,0
2017-11-03T04:48:00.658Z,0
2017-11-03T04:49:00.649Z,0
2017-11-03T04:50:00.623Z,0
2017-11-03T04:51:00.618Z,0
2017-11-03T04:52:00.596Z,0
2017-11-03T04:53:00.598Z,0
2017-11-03T04:54:00.571Z,0
2017-11-03T04:55:00.559Z,0
2017-11-03T04:56:00.882Z,0
2017-11-03T04:57:00.533Z,0
2017-11-03T04:58:00.858Z,0
2017-11-03T04:59:00.849Z,0
2017-11-03T05:00:00.499Z,0
2017-11-03T05:01:00.830Z,0
2017-11-03T05:02:00.812Z,0
2017-11-03T05:03:00.457Z,0
2017-11-03T05:04:00.444Z,0
2017-11-03T05:05:00.430Z,0
2017-11-03T05:06:00.444Z,0
2017-11-03T05:07:00.750Z,0
2017-11-03T05:08:00.397Z,0
2017-11-03T05:09:00.386Z,0
2017-11-03T05:10:00.371Z,0
2017-11-03T05:11:00.375Z,0
2017-11-03T05:12:00.347Z,0
2017-11-03T05:13:00.333Z,0
2017-11-03T05:14:00.659Z,0
2017-11-03T05:15:00.309Z,0
2017-11-03T05:16:00.641Z,0
2017-11-03T05:17:00.283Z,0
2017-11-03T05:18:00.620Z,0
2017-11-03T05:19:00.277Z,0
2017-11-03T05:20:00.246Z,0
2017-11-03T05:21:00.234Z,0
2017-11-03T05:22:00.219Z,0
2017-11-03T05:23:00.209Z,0
2017-11-03T05:24:00.197Z,0
2017-11-03T05:25:00.181Z,0
2017-11-03T05:26:00.513Z,0
2017-11-03T05:27:00.504Z,0
2017-11-03T05:28:00.489Z,0
2017-11-03T05:29:00.481Z,0
2017-11-03T05:30:00.139Z,0
2017-11-03T05:31:00.108Z,0
2017-11-03T05:32:00.438Z,0
2017-11-03T05:33:00.084Z,0
2017-11-03T05:34:00.072Z,0
2017-11-03T05:35:00.078Z,0
2017-11-03T05:36:00.045Z,0
2017-11-03T05:37:00.031Z,0
2017-11-03T05:38:00.025Z,0
2017-11-03T05:39:00.011Z,0
2017-11-03T05:39:59.992Z,0
2017-11-03T05:41:00.320Z,0
2017-11-03T05:41:59.978Z,0
2017-11-03T05:42:59.966Z,0
2017-11-03T05:44:59.939Z,0
2017-11-03T05:45:59.922Z,0
2017-11-03T05:46:59.908Z,0
2017-11-03T05:48:00.243Z,0
2017-11-03T05:49:00.224Z,0
2017-11-03T05:49:59.868Z,0
2017-11-03T05:50:59.857Z,0
2017-11-03T05:52:00.185Z,0
2017-11-03T05:53:00.170Z,0
2017-11-03T05:53:59.815Z,0
2017-11-03T05:54:59.828Z,0
2017-11-03T05:55:59.799Z,0
2017-11-03T05:56:59.786Z,0
2017-11-03T05:57:59.767Z,0
2017-11-03T05:58:59.754Z,0
2017-11-03T05:59:59.743Z,0
2017-11-03T06:01:00.070Z,0
2017-11-03T06:01:59.717Z,0
2017-11-03T06:03:00.064Z,0
2017-11-03T06:03:59.694Z,0
2017-11-03T06:04:59.682Z,0
2017-11-03T06:05:59.665Z,0
2017-11-03T06:07:00.021Z,0
2017-11-03T06:07:59.649Z,0
2017-11-03T06:08:59.629Z,0
2017-11-03T06:09:59.630Z,0
2017-11-03T06:10:59.605Z,0
2017-11-03T06:11:59.593Z,0
2017-11-03T06:12:59.587Z,0
2017-11-03T06:13:59.588Z,0
2017-11-03T06:14:59.554Z,0
2017-11-03T06:15:59.902Z,0
2017-11-03T06:16:59.544Z,0
2017-11-03T06:17:59.516Z,0
2017-11-03T06:18:59.506Z,0
2017-11-03T06:19:59.490Z,0
2017-11-03T06:20:59.822Z,0
2017-11-03T06:21:59.468Z,0
2017-11-03T06:22:59.457Z,0
2017-11-03T06:23:59.450Z,0
2017-11-03T06:24:59.428Z,0
2017-11-03T06:25:59.763Z,0
2017-11-03T06:26:59.405Z,0
2017-11-03T06:27:59.739Z,0
2017-11-03T06:28:59.381Z,0
2017-11-03T06:29:59.709Z,0
2017-11-03T06:30:59.702Z,0
2017-11-03T06:31:59.342Z,0
2017-11-03T06:32:59.673Z,0
2017-11-03T06:33:59.318Z,0
2017-11-03T06:34:59.312Z,0
2017-11-03T06:35:59.311Z,0
2017-11-03T06:36:59.281Z,0
2017-11-03T06:37:59.607Z,0
2017-11-03T06:38:59.253Z,0
2017-11-03T06:39:59.581Z,0
2017-11-03T06:40:59.229Z,0
2017-11-03T06:41:59.567Z,0
2017-11-03T06:42:59.206Z,0
2017-11-03T06:43:59.192Z,0
2017-11-03T06:44:59.181Z,0
2017-11-03T06:45:59.514Z,0
2017-11-03T06:46:59.178Z,0
2017-11-03T06:47:59.491Z,0
2017-11-03T06:48:59.148Z,0
2017-11-03T06:49:59.130Z,0
2017-11-03T06:50:59.102Z,0
2017-11-03T06:51:59.439Z,0
2017-11-03T06:52:59.078Z,0
2017-11-03T06:53:59.408Z,0
2017-11-03T06:54:59.062Z,0
2017-11-03T06:55:59.380Z,0
2017-11-03T06:56:59.031Z,0
2017-11-03T06:57:59.018Z,0
2017-11-03T06:58:59.348Z,0
2017-11-03T06:59:59.343Z,0
2017-11-03T07:00:58.989Z,0
2017-11-03T07:01:58.970Z,0
2017-11-03T07:02:58.955Z,0
2017-11-03T07:03:59.283Z,0
2017-11-03T07:04:58.930Z,0
2017-11-03T07:05:59.262Z,0
2017-11-03T07:06:58.905Z,0
2017-11-03T07:07:58.896Z,0
2017-11-03T07:08:58.894Z,0
2017-11-03T07:09:58.871Z,0
2017-11-03T07:10:59.226Z,0
2017-11-03T07:11:58.844Z,0
2017-11-03T07:12:58.836Z,0
2017-11-03T07:13:58.819Z,0
2017-11-03T07:14:59.149Z,0
2017-11-03T07:15:58.795Z,0
2017-11-03T07:16:58.784Z,0
2017-11-03T07:17:59.128Z,0
2017-11-03T07:18:59.116Z,0
2017-11-03T07:19:58.749Z,0
2017-11-03T07:20:58.737Z,0
2017-11-03T07:21:59.066Z,0
2017-11-03T07:22:58.714Z,0
2017-11-03T07:23:59.048Z,0
2017-11-03T07:24:58.687Z,0
2017-11-03T07:25:58.695Z,0
2017-11-03T07:26:58.662Z,0
2017-11-03T07:27:59.007Z,0
2017-11-03T07:28:58.650Z,0
2017-11-03T07:29:58.625Z,0
2017-11-03T07:30:58.615Z,0.66
2017-11-03T07:31:58.604Z,1.04
2017-11-03T07:32:58.952Z,0.66
2017-11-03T07:33:58.922Z,0.19
2017-11-03T07:34:58.908Z,0
2017-11-03T07:35:58.554Z,0
2017-11-03T07:36:58.885Z,0
2017-11-03T07:37:58.885Z,0.09
2017-11-03T07:38:58.863Z,1.71
2017-11-03T07:39:58.529Z,3.52
2017-11-03T07:40:58.837Z,4.37
2017-11-03T07:41:58.482Z,5.6
2017-11-03T07:42:58.816Z,5.89
2017-11-03T07:43:58.462Z,6.56
2017-11-03T07:44:58.791Z,6.08
2017-11-03T07:45:58.783Z,5.41
2017-11-03T07:46:58.423Z,5.98
2017-11-03T07:47:58.755Z,6.74
2017-11-03T07:48:58.739Z,6.74
2017-11-03T07:49:58.391Z,7.03
2017-11-03T07:50:58.375Z,7.41
2017-11-03T07:51:58.377Z,7.89
2017-11-03T07:52:58.352Z,9.12
2017-11-03T07:53:58.343Z,9.12
2017-11-03T07:54:58.329Z,10.36
2017-11-03T07:55:58.318Z,9.97
2017-11-03T07:56:58.648Z,9.03
2017-11-03T07:57:58.634Z,8.84
2017-11-03T07:58:58.285Z,9.12
2017-11-03T07:59:58.278Z,10.64
2017-11-03T08:00:58.613Z,13.02
2017-11-03T08:01:58.249Z,13.59
2017-11-03T08:02:58.575Z,13.3
2017-11-03T08:03:58.566Z,11.69
2017-11-03T08:04:58.219Z,10.17
2017-11-03T08:05:58.222Z,9.41
2017-11-03T08:06:58.530Z,9.59
2017-11-03T08:07:58.193Z,9.89
2017-11-03T08:08:58.520Z,11.03
2017-11-03T08:09:58.498Z,12.64
2017-11-03T08:10:58.142Z,13.5
2017-11-03T08:11:58.472Z,14.36
2017-11-03T08:12:58.122Z,15.21
2017-11-03T08:13:58.460Z,15.31
2017-11-03T08:14:58.318Z,17.02
2017-11-03T08:15:58.087Z,20.06
2017-11-03T08:16:58.074Z,19.01
2017-11-03T08:17:58.062Z,17.87
2017-11-03T08:18:58.397Z,17.78
2017-11-03T08:19:58.038Z,17.21
2017-11-03T08:20:58.032Z,16.35
2017-11-03T08:21:58.358Z,16.35
2017-11-03T08:22:58.347Z,17.02
2017-11-03T08:23:57.995Z,17.88
2017-11-03T08:24:57.984Z,18.64
2017-11-03T08:25:57.975Z,20.73
2017-11-03T08:26:58.318Z,22.92
2017-11-03T08:27:57.953Z,24.92
2017-11-03T08:28:58.279Z,26.44
2017-11-03T08:29:57.951Z,28.34
2017-11-03T08:30:58.257Z,28.34
2017-11-03T08:31:58.248Z,27.3
2017-11-03T08:32:58.234Z,26.64
2017-11-03T08:33:57.886Z,27.78
2017-11-03T08:34:57.874Z,29.49
2017-11-03T08:35:57.866Z,30.91
2017-11-03T08:36:57.853Z,30.54
2017-11-03T08:37:57.844Z,31.68
2017-11-03T08:38:58.174Z,32.72
2017-11-03T08:39:57.822Z,33.29
2017-11-03T08:40:57.810Z,33.96
2017-11-03T08:41:57.797Z,33.48
2017-11-03T08:42:57.789Z,32.72
2017-11-03T08:43:58.119Z,34.05
2017-11-03T08:44:58.105Z,33.2
2017-11-03T08:45:57.754Z,31.68
2017-11-03T08:46:57.744Z,31.29
2017-11-03T08:47:58.110Z,31.01
2017-11-03T08:48:58.065Z,29.68
2017-11-03T08:49:57.715Z,30.73
2017-11-03T08:50:57.701Z,31.87
2017-11-03T08:51:57.691Z,32.82
2017-11-03T08:52:57.681Z,32.06
2017-11-03T08:53:58.014Z,28.34
2017-11-03T08:54:57.660Z,26.25
2017-11-03T08:55:57.650Z,26.35
2017-11-03T08:56:57.636Z,27.11
2017-11-03T08:57:57.969Z,32.34
2017-11-03T08:58:57.616Z,33.77
2017-11-03T08:59:57.609Z,33.39
2017-11-03T09:00:57.596Z,31.58
2017-11-03T09:01:57.584Z,30.25
2017-11-03T09:02:57.916Z,33.97
2017-11-03T09:03:57.565Z,32.74
2017-11-03T09:04:57.554Z,31.98
2017-11-03T09:05:57.554Z,33.22
2017-11-03T09:06:57.536Z,35.5
2017-11-03T09:07:57.882Z,39.21
2017-11-03T09:08:57.513Z,39.5
2017-11-03T09:09:57.518Z,39.59
2017-11-03T09:10:57.833Z,42.35
2017-11-03T09:11:57.825Z,42.16
2017-11-03T09:12:57.474Z,40.45
2017-11-03T09:13:57.461Z,39.69
2017-11-03T09:14:57.458Z,39.12
2017-11-03T09:15:57.443Z,39.87
2017-11-03T09:16:57.770Z,39.51
2017-11-03T09:17:57.422Z,39.51
2017-11-03T09:18:57.755Z,43.59
2017-11-03T09:19:57.740Z,44.45
2017-11-03T09:20:57.747Z,45.01
2017-11-03T09:21:57.762Z,44.82
2017-11-03T09:22:57.711Z,44.82
2017-11-03T09:23:57.714Z,44.16
2017-11-03T09:24:57.695Z,42.73
2017-11-03T09:25:57.683Z,43.4
2017-11-03T09:26:57.332Z,45.59
2017-11-03T09:27:57.323Z,45.49
2017-11-03T09:28:57.313Z,44.54
2017-11-03T09:29:57.302Z,42.07
2017-11-03T09:30:57.304Z,40.14
2017-11-03T09:31:57.302Z,38.62
2017-11-03T09:32:57.292Z,35.86
2017-11-03T09:33:57.263Z,37.57
2017-11-03T09:34:57.255Z,39.57
2017-11-03T09:35:57.598Z,39.19
2017-11-03T09:36:57.232Z,42.33
2017-11-03T09:37:57.246Z,45.85
2017-11-03T09:38:57.211Z,44.42
2017-11-03T09:39:57.200Z,41.47
2017-11-03T09:40:57.194Z,41.76
2017-11-03T09:41:57.523Z,43.38
2017-11-03T09:42:57.168Z,43.95
2017-11-03T09:43:57.159Z,42.14
2017-11-03T09:44:57.147Z,41.09
2017-11-03T09:45:57.497Z,40.62
2017-11-03T09:46:57.134Z,39.38
2017-11-03T09:47:57.118Z,37.93
2017-11-03T09:48:57.108Z,36.6
2017-11-03T09:49:57.100Z,35.37
2017-11-03T09:50:57.427Z,33.47
2017-11-03T09:51:57.075Z,32.04
2017-11-03T09:52:57.422Z,30.71
2017-11-03T09:53:57.058Z,30.04
2017-11-03T09:54:57.044Z,28.33
2017-11-03T09:55:57.045Z,27.19
2017-11-03T09:56:57.034Z,27.09
2017-11-03T09:57:57.365Z,25.76
2017-11-03T09:58:57.005Z,24.24
2017-11-03T09:59:57.003Z,25.01
2017-11-03T10:00:56.980Z,27.19
2017-11-03T10:01:57.322Z,26.81
2017-11-03T10:02:57.300Z,25.86
2017-11-03T10:03:56.953Z,24.24
2017-11-03T10:04:56.939Z,26.43
2017-11-03T10:05:56.928Z,29.57
2017-11-03T10:06:57.264Z,32.91
2017-11-03T10:07:56.914Z,42.8
2017-11-03T10:08:57.236Z,53.27
2017-11-03T10:09:57.234Z,53.46
2017-11-03T10:10:56.875Z,52.61
2017-11-03T10:11:56.869Z,53.46
2017-11-03T10:12:56.854Z,55.29
2017-11-03T10:13:57.182Z,58.15
2017-11-03T10:14:56.832Z,59.29
2017-11-03T10:15:56.822Z,72.24
2017-11-03T10:16:56.816Z,70.43
2017-11-03T10:17:56.802Z,67.86
2017-11-03T10:18:57.131Z,69.67
2017-11-03T10:19:56.781Z,71.67
2017-11-03T10:20:57.110Z,70.65
2017-11-03T10:21:56.758Z,74.27
2017-11-03T10:22:56.751Z,78.08
2017-11-03T10:23:56.738Z,79.03
2017-11-03T10:24:56.728Z,80.08
2017-11-03T10:25:56.718Z,85.94
2017-11-03T10:26:56.722Z,85.99
2017-11-03T10:27:56.698Z,87.89
2017-11-03T10:28:57.030Z,90.08
2017-11-03T10:29:56.677Z,89.51
2017-11-03T10:30:56.667Z,88.46
2017-11-03T10:31:56.655Z,87.79
2017-11-03T10:32:56.646Z,87.13
2017-11-03T10:33:56.635Z,87.51
2017-11-03T10:34:56.628Z,94.56
2017-11-03T10:35:56.961Z,97.89
2017-11-03T10:36:56.947Z,97.03
2017-11-03T10:37:56.941Z,93.13
2017-11-03T10:38:56.931Z,90.27
2017-11-03T10:39:56.926Z,89.51
2017-11-03T10:40:56.911Z,89.98
2017-11-03T10:41:56.906Z,91.99
2017-11-03T10:42:56.548Z,93.6
2017-11-03T10:43:56.539Z,96.03
2017-11-03T10:44:56.528Z,96.41
2017-11-03T10:45:56.520Z,97.99
2017-11-03T10:46:56.851Z,97.22
2017-11-03T10:47:56.503Z,96.55
2017-11-03T10:48:56.829Z,94.46
2017-11-03T10:49:56.488Z,96.94
2017-11-03T10:50:56.470Z,97.22
2017-11-03T10:51:56.801Z,98.08
2017-11-03T10:52:56.794Z,99.99
2017-11-03T10:53:56.783Z,99.46
2017-11-03T10:54:56.431Z,99.79
2017-11-03T10:55:56.422Z,99.99
2017-11-03T10:56:56.755Z,99.99
2017-11-03T10:57:56.745Z,99.99
2017-11-03T10:58:56.394Z,96.46
2017-11-03T10:59:56.387Z,99.99
2017-11-03T11:00:56.374Z,98.51
2017-11-03T11:01:56.364Z,96.32
2017-11-03T11:02:56.356Z,98.6
2017-11-03T11:03:56.345Z,97.75
2017-11-03T11:04:56.675Z,98.03
2017-11-03T11:05:56.346Z,98.51
2017-11-03T11:06:56.659Z,97.08
2017-11-03T11:07:56.649Z,98.22
2017-11-03T11:08:56.294Z,99.99
2017-11-03T11:09:56.300Z,95.65
2017-11-03T11:10:56.278Z,96.03
2017-11-03T11:11:56.265Z,99.99
2017-11-03T11:12:56.257Z,99.18
2017-11-03T11:13:56.252Z,99.99
2017-11-03T11:14:56.240Z,98.89
2017-11-03T11:15:56.565Z,99.99
2017-11-03T11:16:56.223Z,99.99
2017-11-03T11:17:56.554Z,99.99
2017-11-03T11:18:56.206Z,99.99
2017-11-03T11:19:56.533Z,99.99
2017-11-03T11:20:56.183Z,99.99
2017-11-03T11:21:56.543Z,99.99
2017-11-03T11:22:56.161Z,99.99
2017-11-03T11:23:56.491Z,99.99
2017-11-03T11:24:56.151Z,99.99
2017-11-03T11:25:56.476Z,99.99
2017-11-03T11:26:56.125Z,99.99
2017-11-03T11:27:56.114Z,99.99
2017-11-03T11:28:56.108Z,99.99
2017-11-03T11:29:56.113Z,99.99
2017-11-03T11:30:56.429Z,96.03
2017-11-03T11:31:56.079Z,96.6
2017-11-03T11:32:56.428Z,96.8
2017-11-03T11:33:56.059Z,96.89
2017-11-03T11:34:56.419Z,97.84
2017-11-03T11:35:56.042Z,99.37
2017-11-03T11:36:56.034Z,98.89
2017-11-03T11:37:56.021Z,99.18
2017-11-03T11:38:56.012Z,99.27
2017-11-03T11:39:56.340Z,99.55
2017-11-03T11:40:55.994Z,99.99
2017-11-03T11:41:56.321Z,99.99
2017-11-03T11:42:55.986Z,99.99
2017-11-03T11:43:56.311Z,99.55
2017-11-03T11:44:55.955Z,99.99
2017-11-03T11:45:55.946Z,99.99
2017-11-03T11:46:55.936Z,99.99
2017-11-03T11:47:55.929Z,99.99
2017-11-03T11:48:55.924Z,99.99
2017-11-03T11:49:55.907Z,99.99
2017-11-03T11:50:55.903Z,99.99
2017-11-03T11:51:56.240Z,99.99
2017-11-03T11:52:55.880Z,99.99
2017-11-03T11:53:55.875Z,99.99
2017-11-03T11:54:55.860Z,99.99
2017-11-03T11:55:56.193Z,99.55
2017-11-03T11:56:55.842Z,96.8
2017-11-03T11:57:56.176Z,98.13
2017-11-03T11:58:56.168Z,97.75
2017-11-03T11:59:55.814Z,99.46
2017-11-03T12:00:55.809Z,98.89
2017-11-03T12:01:55.794Z,97.75
2017-11-03T12:02:55.908Z,94.41
2017-11-03T12:03:55.778Z,98.41
2017-11-03T12:04:55.769Z,99.27
2017-11-03T12:05:55.760Z,93.37
2017-11-03T12:06:55.750Z,96.32
2017-11-03T12:07:55.739Z,96.22
2017-11-03T12:08:55.734Z,95.75
2017-11-03T12:09:56.066Z,96.89
2017-11-03T12:10:55.709Z,96.7
2017-11-03T12:11:55.702Z,96.22
2017-11-03T12:12:55.694Z,95.84
2017-11-03T12:13:55.684Z,97.65
2017-11-03T12:14:55.671Z,97.17
2017-11-03T12:15:55.664Z,97.08
2017-11-03T12:16:55.656Z,98.79
2017-11-03T12:17:55.653Z,98.51
2017-11-03T12:18:55.639Z,99.99
2017-11-03T12:19:55.628Z,99.99
2017-11-03T12:20:55.969Z,99.99
2017-11-03T12:21:55.629Z,99.41
2017-11-03T12:22:55.614Z,99.99
2017-11-03T12:23:55.589Z,98.36
2017-11-03T12:24:55.934Z,96.94
2017-11-03T12:25:55.571Z,96.94
2017-11-03T12:26:55.906Z,98.18
2017-11-03T12:27:55.551Z,96.55
2017-11-03T12:28:55.543Z,96.75
2017-11-03T12:29:55.880Z,98.18
2017-11-03T12:30:55.533Z,99.13
2017-11-03T12:31:55.544Z,99.98
2017-11-03T12:32:55.507Z,99.99
2017-11-03T12:33:55.851Z,99.89
2017-11-03T12:34:55.486Z,99.51
2017-11-03T12:35:55.484Z,97.7
2017-11-03T12:36:55.812Z,97.31
2017-11-03T12:37:55.808Z,94.37
2017-11-03T12:38:55.448Z,94.93
2017-11-03T12:39:55.434Z,95.03
2017-11-03T12:40:55.430Z,95.89
2017-11-03T12:41:55.764Z,98.36
2017-11-03T12:42:55.408Z,97.51
2017-11-03T12:43:55.745Z,96.84
2017-11-03T12:44:55.390Z,98.08
2017-11-03T12:45:55.397Z,97.13
2017-11-03T12:46:55.705Z,96.36
2017-11-03T12:47:55.382Z,94.74
2017-11-03T12:48:55.687Z,95.32
2017-11-03T12:49:55.340Z,97.31
2017-11-03T12:50:55.342Z,96.55
2017-11-03T12:51:55.664Z,98.27
2017-11-03T12:52:55.312Z,97.03
2017-11-03T12:53:55.321Z,95.89
2017-11-03T12:54:55.635Z,95.6
2017-11-03T12:55:55.284Z,94.93
2017-11-03T12:56:55.273Z,93.7
2017-11-03T12:57:55.605Z,96.55
2017-11-03T12:58:55.257Z,99.94
2017-11-03T12:59:55.585Z,98.55
2017-11-03T13:00:55.237Z,95.36
2017-11-03T13:01:55.226Z,95.65
2017-11-03T13:02:55.559Z,95.94
2017-11-03T13:03:55.208Z,96.41
2017-11-03T13:04:55.535Z,97.65
2017-11-03T13:05:55.187Z,97.94
2017-11-03T13:06:55.177Z,98.13
2017-11-03T13:07:55.166Z,97.94
2017-11-03T13:08:55.508Z,98.41
2017-11-03T13:09:55.149Z,98.22
2017-11-03T13:10:55.200Z,99.27
2017-11-03T13:11:55.152Z,95.27
2017-11-03T13:12:55.122Z,95.17
2017-11-03T13:13:55.115Z,93.17
2017-11-03T13:14:55.444Z,93.74
2017-11-03T13:15:55.116Z,95.94
2017-11-03T13:16:55.082Z,96.51
2017-11-03T13:17:55.088Z,96.22
2017-11-03T13:18:55.064Z,95.51
2017-11-03T13:19:55.406Z,93.79
2017-11-03T13:20:55.047Z,94.46
2017-11-03T13:21:55.376Z,94.08
2017-11-03T13:22:55.025Z,93.41
2017-11-03T13:23:55.020Z,93.32
2017-11-03T13:24:55.008Z,93.6
2017-11-03T13:25:55.344Z,93.89
2017-11-03T13:26:54.989Z,95.79
2017-11-03T13:27:54.979Z,94.27
2017-11-03T13:28:54.968Z,95.98
2017-11-03T13:29:54.962Z,96.17
2017-11-03T13:30:54.982Z,95.22
2017-11-03T13:31:55.309Z,94.37
2017-11-03T13:32:55.271Z,95.79
2017-11-03T13:33:55.279Z,95.22
2017-11-03T13:34:54.924Z,96.75
2017-11-03T13:35:54.904Z,95.12
2017-11-03T13:36:54.894Z,96.65
2017-11-03T13:37:54.883Z,96.55
2017-11-03T13:38:54.873Z,95.79
2017-11-03T13:39:55.210Z,98.55
2017-11-03T13:40:54.858Z,97.99
2017-11-03T13:41:54.845Z,98.36
2017-11-03T13:42:54.837Z,98.84
2017-11-03T13:43:54.823Z,98.08
2017-11-03T13:44:55.191Z,97.22
2017-11-03T13:45:54.804Z,97.6
2017-11-03T13:46:54.800Z,96.94
2017-11-03T13:47:54.816Z,99.99
2017-11-03T13:48:54.776Z,98.46
2017-11-03T13:49:54.783Z,96.94
2017-11-03T13:50:54.774Z,97.7
2017-11-03T13:51:54.750Z,97.7
2017-11-03T13:52:54.735Z,97.13